CheckWX is a tool to help pilots better visualize weather data.  It is not intended as a substitute for an official pre-flight weather briefing.

07:50:21 UTC

CYED METAR
Edmonton (CFB Namao) Heliport
Edmonton, Canada
Current

50 mins ago

CYED 060700Z AUTO 25003KT 9SM CLR 11/11 A2999 RMK SLP165
Observed
Jul-6 @ 07:00 UTC
Wind
  • 250° at 3 KTS
Visibility
9 SM
Flight Rules
VFR
Cloud Levels
  • Clear skies
Temperature
11°C / 52°F
Dewpoint
11°C / 52°F
Humidity
100%
Altimeter
29.99" Hg
Pressure
1015.62 hPa
Previous

2 hours ago

CYED 060600Z AUTO 26002KT 9SM CLR 10/10 A3000 RMK SLP167
Observed
Jul-6 @ 06:00 UTC
Wind
  • 260° at 2 KTS
Visibility
9 SM
Flight Rules
VFR
Cloud Levels
  • Clear skies
Temperature
10°C / 50°F
Dewpoint
10°C / 50°F
Humidity
100%
Altimeter
30" Hg
Pressure
1015.92 hPa
Previous

3 hours ago

CYED 060500Z AUTO 32003KT 9SM CLR 11/11 A2999 RMK SLP164
Observed
Jul-6 @ 05:00 UTC
Wind
  • 320° at 3 KTS
Visibility
9 SM
Flight Rules
VFR
Cloud Levels
  • Clear skies
Temperature
11°C / 52°F
Dewpoint
11°C / 52°F
Humidity
100%
Altimeter
29.99" Hg
Pressure
1015.62 hPa